createdAt,value
2017-09-24T00:02:01.679Z,85.77
2017-09-24T00:04:29.970Z,85.40
2017-09-24T00:06:58.258Z,91.23
2017-09-24T00:09:26.557Z,82.83
2017-09-24T00:11:54.982Z,85.73
2017-09-24T00:14:23.283Z,81.77
2017-09-24T00:16:51.606Z,81.47
2017-09-24T00:19:20.686Z,85.47
2017-09-24T00:21:48.983Z,76.27
2017-09-24T00:24:17.415Z,78.20
2017-09-24T00:26:45.713Z,79.17
2017-09-24T00:29:14.020Z,74.67
2017-09-24T00:31:42.315Z,76.37
2017-09-24T00:34:10.618Z,78.33
2017-09-24T00:36:39.047Z,74.33
2017-09-24T00:39:08.118Z,81.63
2017-09-24T00:41:36.414Z,74.70
2017-09-24T00:44:04.729Z,78.77
2017-09-24T00:46:33.023Z,82.00
2017-09-24T00:49:01.347Z,77.50
2017-09-24T00:51:29.650Z,75.03
2017-09-24T00:53:57.974Z,69.93
2017-09-24T00:56:26.313Z,76.07
2017-09-24T00:58:54.650Z,76.57
2017-09-24T01:01:23.000Z,74.43
2017-09-24T01:03:51.331Z,76.20
2017-09-24T01:06:19.708Z,73.17
2017-09-24T01:08:48.389Z,76.13
2017-09-24T01:11:16.679Z,70.53
2017-09-24T01:13:44.994Z,68.90
2017-09-24T01:16:13.290Z,67.90
2017-09-24T01:18:41.725Z,72.37
2017-09-24T01:21:10.069Z,68.70
2017-09-24T01:23:38.402Z,74.03
2017-09-24T01:26:07.517Z,74.13
2017-09-24T01:28:35.880Z,74.97
2017-09-24T01:31:04.219Z,73.80
2017-09-24T01:33:33.388Z,76.40
2017-09-24T01:36:01.765Z,72.57
2017-09-24T01:38:30.883Z,71.40
2017-09-24T01:41:00.138Z,70.60
2017-09-24T01:43:28.483Z,71.43
2017-09-24T01:45:56.868Z,72.17
2017-09-24T01:48:25.203Z,72.97
2017-09-24T01:50:53.543Z,73.60
2017-09-24T01:53:21.890Z,70.83
2017-09-24T01:55:50.225Z,67.07
2017-09-24T01:58:19.435Z,69.40
2017-09-24T02:00:48.590Z,69.57
2017-09-24T02:03:16.918Z,69.60
2017-09-24T02:05:45.272Z,66.00
2017-09-24T02:08:14.395Z,70.20
2017-09-24T02:10:43.531Z,71.87
2017-09-24T02:13:11.907Z,72.07
2017-09-24T02:15:40.254Z,67.53
2017-09-24T02:18:08.630Z,67.27
2017-09-24T02:20:37.026Z,64.87
2017-09-24T02:23:06.185Z,64.60
2017-09-24T02:25:34.588Z,67.10
2017-09-24T02:28:02.966Z,72.17
2017-09-24T02:30:31.371Z,71.97
2017-09-24T02:33:00.488Z,71.67
2017-09-24T02:35:29.646Z,77.60
2017-09-24T02:37:58.818Z,76.00
2017-09-24T02:40:27.150Z,70.53
2017-09-24T02:42:56.214Z,62.40
2017-09-24T02:45:24.507Z,63.43
2017-09-24T02:47:52.801Z,61.17
2017-09-24T02:50:21.112Z,56.57
2017-09-24T02:52:49.434Z,60.87
2017-09-24T02:55:17.726Z,65.30
2017-09-24T02:57:46.167Z,63.40
2017-09-24T03:00:14.463Z,63.90
2017-09-24T03:02:42.758Z,66.30
2017-09-24T03:05:11.059Z,68.97
2017-09-24T03:07:39.350Z,68.33
2017-09-24T03:10:07.774Z,77.17
2017-09-24T03:12:36.079Z,66.40
2017-09-24T03:15:04.378Z,65.73
2017-09-24T03:17:32.670Z,64.97
2017-09-24T03:20:00.974Z,67.10
2017-09-24T03:22:29.299Z,63.00
2017-09-24T03:24:58.646Z,64.77
2017-09-24T03:27:27.071Z,65.93
2017-09-24T03:29:55.367Z,65.70
2017-09-24T03:32:23.666Z,63.23
2017-09-24T03:34:51.962Z,59.87
2017-09-24T03:37:20.267Z,58.90
2017-09-24T03:39:48.593Z,57.23
2017-09-24T03:42:16.913Z,55.13
2017-09-24T03:44:45.206Z,58.60
2017-09-24T03:47:13.508Z,59.80
2017-09-24T03:49:41.805Z,60.00
2017-09-24T03:52:10.230Z,56.03
2017-09-24T03:54:38.536Z,54.40
2017-09-24T03:57:07.602Z,57.03
2017-09-24T03:59:35.902Z,56.10
2017-09-24T04:02:04.206Z,53.03
2017-09-24T04:04:32.544Z,53.17
2017-09-24T04:07:00.851Z,53.53
2017-09-24T04:09:29.175Z,50.73
2017-09-24T04:11:58.233Z,51.40
2017-09-24T04:14:26.539Z,53.30
2017-09-24T04:16:54.826Z,50.70
2017-09-24T04:19:23.131Z,56.67
2017-09-24T04:21:51.558Z,61.67
2017-09-24T04:24:19.850Z,55.80
2017-09-24T04:26:48.151Z,54.20
2017-09-24T04:29:16.459Z,50.50
2017-09-24T04:31:44.758Z,53.30
2017-09-24T04:34:13.191Z,49.80
2017-09-24T04:36:41.482Z,53.53
2017-09-24T04:39:09.791Z,52.57
2017-09-24T04:41:38.094Z,50.10
2017-09-24T04:44:06.400Z,50.10
2017-09-24T04:46:34.688Z,59.00
2017-09-24T04:49:02.996Z,64.23
2017-09-24T04:51:31.422Z,65.37
2017-09-24T04:54:00.504Z,65.30
2017-09-24T04:56:28.806Z,62.00
2017-09-24T04:58:57.102Z,60.73
2017-09-24T05:01:25.395Z,52.40
2017-09-24T05:03:53.815Z,52.50
2017-09-24T05:06:22.118Z,49.23
2017-09-24T05:08:50.419Z,49.50
2017-09-24T05:11:18.715Z,48.30
2017-09-24T05:13:47.023Z,48.50
2017-09-24T05:16:15.439Z,49.13
2017-09-24T05:18:43.738Z,49.87
2017-09-24T05:21:12.040Z,52.87
2017-09-24T05:23:40.338Z,56.00
2017-09-24T05:26:08.640Z,52.20
2017-09-24T05:28:36.973Z,52.93
2017-09-24T05:31:06.037Z,57.10
2017-09-24T05:33:34.357Z,54.27
2017-09-24T05:36:02.660Z,53.27
2017-09-24T05:38:30.959Z,53.80
2017-09-24T05:40:59.308Z,59.70
2017-09-24T05:43:28.374Z,56.93
2017-09-24T05:45:56.679Z,52.97
2017-09-24T05:48:24.975Z,53.90
2017-09-24T05:50:53.269Z,55.30
2017-09-24T05:53:21.571Z,52.87
2017-09-24T05:55:49.857Z,57.53
2017-09-24T05:58:18.290Z,60.20
2017-09-24T06:00:46.582Z,60.47
2017-09-24T06:03:14.886Z,61.23
2017-09-24T06:05:43.186Z,61.23
2017-09-24T06:08:11.485Z,60.13
2017-09-24T06:10:39.802Z,59.30
2017-09-24T06:13:08.699Z,59.33
2017-09-24T06:15:37.004Z,60.90
2017-09-24T06:18:05.701Z,55.67
2017-09-24T06:20:34.654Z,57.03
2017-09-24T06:23:03.828Z,55.43
2017-09-24T06:25:32.605Z,54.10
2017-09-24T06:28:01.252Z,56.67
2017-09-24T06:30:30.129Z,56.50
2017-09-24T06:32:59.525Z,60.87
2017-09-24T06:35:28.185Z,58.77
2017-09-24T06:37:57.000Z,57.37
2017-09-24T06:40:25.978Z,54.33
2017-09-24T06:42:55.371Z,57.73
2017-09-24T06:45:24.128Z,55.90
2017-09-24T06:47:52.955Z,52.87
2017-09-24T06:50:21.697Z,52.00
2017-09-24T06:52:50.769Z,50.37
2017-09-24T06:55:19.696Z,43.87
2017-09-24T06:57:48.210Z,47.37
2017-09-24T07:00:16.856Z,43.57
2017-09-24T07:02:45.786Z,44.07
2017-09-24T07:05:14.424Z,42.77
2017-09-24T07:07:43.708Z,42.23
2017-09-24T07:10:12.492Z,37.97
2017-09-24T07:12:41.166Z,40.67
2017-09-24T07:15:09.933Z,38.80
2017-09-24T07:17:38.795Z,36.93
2017-09-24T07:20:07.380Z,35.50
2017-09-24T07:22:36.226Z,35.40
2017-09-24T07:25:05.930Z,33.87
2017-09-24T07:27:34.536Z,34.70
2017-09-24T07:30:02.928Z,32.07
2017-09-24T07:32:32.088Z,29.80
2017-09-24T07:35:00.392Z,32.77
2017-09-24T07:37:28.726Z,32.43
2017-09-24T07:39:57.035Z,32.90
2017-09-24T07:42:25.342Z,32.63
2017-09-24T07:44:53.635Z,31.50
2017-09-24T07:47:21.930Z,30.03
2017-09-24T07:49:50.357Z,31.40
2017-09-24T07:52:18.654Z,30.90
2017-09-24T07:54:47.739Z,31.00
2017-09-24T07:57:16.022Z,29.47
2017-09-24T07:59:44.319Z,30.10
2017-09-24T08:02:12.657Z,28.50
2017-09-24T08:04:40.952Z,29.00
2017-09-24T08:07:09.251Z,27.90
2017-09-24T08:09:37.576Z,27.70
2017-09-24T08:12:05.906Z,27.93
2017-09-24T08:14:35.039Z,27.80
2017-09-24T08:17:03.350Z,28.80
2017-09-24T08:19:31.887Z,32.17
2017-09-24T08:22:00.172Z,27.57
2017-09-24T08:24:28.468Z,29.60
2017-09-24T08:26:56.761Z,28.93
2017-09-24T08:29:25.056Z,28.13
2017-09-24T08:31:53.375Z,28.93
2017-09-24T08:34:21.674Z,27.70
2017-09-24T08:36:50.000Z,28.77
2017-09-24T08:39:18.316Z,27.87
2017-09-24T08:41:46.739Z,27.17
2017-09-24T08:44:15.032Z,27.67
2017-09-24T08:46:43.330Z,27.43
2017-09-24T08:49:11.646Z,26.63
2017-09-24T08:51:40.694Z,28.20
2017-09-24T08:54:09.117Z,25.90
2017-09-24T08:56:37.416Z,25.47
2017-09-24T08:59:05.715Z,25.10
2017-09-24T09:01:34.006Z,25.70
2017-09-24T09:04:02.316Z,23.77
2017-09-24T09:06:30.638Z,23.33
2017-09-24T09:08:58.936Z,26.03
2017-09-24T09:11:27.231Z,22.33
2017-09-24T09:13:55.522Z,23.23
2017-09-24T09:16:23.823Z,27.57
2017-09-24T09:18:52.144Z,24.87
2017-09-24T09:21:20.434Z,23.70
2017-09-24T09:23:48.862Z,23.30
2017-09-24T09:26:17.167Z,21.83
2017-09-24T09:28:45.458Z,23.33
2017-09-24T09:31:13.758Z,25.80
2017-09-24T09:33:52.760Z,25.17
2017-09-24T09:36:21.956Z,21.83
2017-09-24T09:38:50.256Z,22.30
2017-09-24T09:41:18.598Z,22.73
2017-09-24T09:43:46.885Z,22.63
2017-09-24T09:46:27.760Z,22.23
2017-09-24T09:48:56.048Z,20.57
2017-09-24T09:51:24.347Z,21.50
2017-09-24T09:53:52.767Z,20.87
2017-09-24T09:56:21.060Z,21.30
2017-09-24T09:58:49.351Z,20.90
2017-09-24T10:01:17.661Z,21.27
2017-09-24T10:03:45.956Z,21.53
2017-09-24T10:06:14.280Z,21.90
2017-09-24T10:08:52.110Z,20.50
2017-09-24T10:11:20.441Z,21.67
2017-09-24T10:13:48.732Z,23.43
2017-09-24T10:16:17.121Z,22.27
2017-09-24T10:18:46.291Z,20.70
2017-09-24T10:21:14.629Z,22.50
2017-09-24T10:23:42.961Z,21.33
2017-09-24T10:26:12.095Z,21.60
2017-09-24T10:28:52.172Z,22.37
2017-09-24T10:34:19.779Z,19.83
2017-09-24T10:36:48.080Z,18.40
2017-09-24T10:39:16.514Z,17.00
2017-09-24T10:41:44.871Z,16.90
2017-09-24T10:44:13.294Z,16.03
2017-09-24T10:46:42.369Z,15.63
2017-09-24T10:49:10.698Z,15.93
2017-09-24T10:51:39.751Z,17.33
2017-09-24T10:54:08.042Z,13.53
2017-09-24T10:56:37.880Z,14.57
2017-09-24T10:59:06.201Z,15.10
2017-09-24T11:01:34.512Z,14.10
2017-09-24T11:04:02.801Z,13.30
2017-09-24T11:06:31.869Z,11.73
2017-09-24T11:09:01.136Z,13.13
2017-09-24T11:11:30.209Z,13.90
2017-09-24T11:13:58.506Z,14.40
2017-09-24T11:16:26.803Z,13.20
2017-09-24T11:18:55.878Z,15.13
2017-09-24T11:21:25.070Z,16.43
2017-09-24T11:23:53.359Z,15.17
2017-09-24T11:26:21.654Z,15.33
2017-09-24T11:28:51.107Z,17.07
2017-09-24T11:31:19.403Z,17.13
2017-09-24T11:33:47.723Z,15.00
2017-09-24T11:36:16.036Z,15.30
2017-09-24T11:38:45.138Z,15.70
2017-09-24T11:41:13.468Z,14.97
2017-09-24T11:43:41.762Z,13.10
2017-09-24T11:46:10.185Z,12.77
2017-09-24T11:48:38.480Z,12.80
2017-09-24T11:51:06.775Z,13.87
2017-09-24T11:53:35.842Z,11.83
2017-09-24T11:56:04.139Z,10.53
2017-09-24T11:58:32.562Z,13.33
2017-09-24T12:01:00.859Z,12.70
2017-09-24T12:03:29.159Z,13.13
2017-09-24T12:05:58.217Z,11.20
2017-09-24T12:08:26.511Z,11.20
2017-09-24T12:10:54.803Z,11.33
2017-09-24T12:13:23.108Z,10.03
2017-09-24T12:15:51.510Z,10.20
2017-09-24T12:18:19.803Z,8.50
2017-09-24T12:20:48.140Z,8.37
2017-09-24T12:23:16.431Z,7.93
2017-09-24T12:25:45.687Z,7.87
2017-09-24T12:28:13.971Z,8.20
2017-09-24T12:30:43.033Z,8.80
2017-09-24T12:33:11.321Z,9.50
2017-09-24T12:35:39.615Z,10.00
2017-09-24T12:38:09.039Z,9.37
2017-09-24T12:40:37.335Z,9.27
2017-09-24T12:43:05.979Z,7.83
2017-09-24T12:45:35.036Z,8.27
2017-09-24T12:48:03.336Z,7.73
2017-09-24T12:50:31.628Z,7.80
2017-09-24T12:52:59.944Z,8.13
2017-09-24T12:55:28.242Z,8.73
2017-09-24T12:57:57.308Z,7.10
2017-09-24T13:00:25.634Z,8.30
2017-09-24T13:02:54.690Z,9.47
2017-09-24T13:05:22.984Z,9.70
2017-09-24T13:07:51.299Z,10.07
2017-09-24T13:10:19.596Z,9.23
2017-09-24T13:12:49.767Z,9.03
2017-09-24T13:15:18.104Z,11.23
2017-09-24T13:17:46.402Z,12.27
2017-09-24T13:20:16.207Z,12.20
2017-09-24T13:22:44.530Z,12.70
2017-09-24T13:25:13.597Z,12.70
2017-09-24T13:27:42.150Z,12.70
2017-09-24T13:30:10.456Z,14.40
2017-09-24T13:32:39.540Z,13.07
2017-09-24T13:35:08.611Z,13.23
2017-09-24T13:37:37.671Z,14.40
2017-09-24T13:40:05.975Z,12.20
2017-09-24T13:42:35.075Z,13.20
2017-09-24T13:45:03.434Z,12.63
2017-09-24T13:47:32.495Z,12.17
2017-09-24T13:50:00.809Z,11.23
2017-09-24T13:52:29.109Z,10.67
2017-09-24T13:54:57.403Z,10.30
2017-09-24T13:57:25.699Z,9.67
2017-09-24T13:59:54.782Z,8.90
2017-09-24T14:02:23.844Z,9.43
2017-09-24T14:04:52.135Z,7.63
2017-09-24T14:07:20.459Z,7.07
2017-09-24T14:09:49.524Z,7.60
2017-09-24T14:12:17.822Z,6.60
2017-09-24T14:14:46.259Z,6.10
2017-09-24T14:17:14.547Z,7.03
2017-09-24T14:19:42.834Z,5.73
2017-09-24T14:22:11.142Z,6.93
2017-09-24T14:24:39.428Z,5.13
2017-09-24T14:27:09.252Z,6.70
2017-09-24T14:29:39.066Z,4.73
2017-09-24T14:32:07.351Z,5.00
2017-09-24T14:34:35.672Z,4.80
2017-09-24T14:37:04.723Z,4.40
2017-09-24T14:39:33.807Z,3.50
2017-09-24T14:42:02.255Z,5.60
2017-09-24T14:44:30.741Z,5.47
2017-09-24T14:46:59.054Z,5.53
2017-09-24T14:49:27.426Z,6.13
2017-09-24T14:51:55.916Z,5.87
2017-09-24T14:54:24.200Z,6.93
2017-09-24T14:56:52.483Z,6.43
2017-09-24T14:59:20.796Z,6.77
2017-09-24T15:01:49.078Z,7.37
2017-09-24T15:04:17.406Z,6.33
2017-09-24T15:06:45.691Z,5.70
2017-09-24T15:09:14.774Z,5.53
2017-09-24T15:11:43.682Z,5.50
2017-09-24T15:14:12.735Z,4.87
2017-09-24T15:16:41.778Z,4.93
2017-09-24T15:19:10.101Z,4.93
2017-09-24T15:21:39.178Z,5.63
2017-09-24T15:24:07.500Z,5.63
2017-09-24T15:26:36.547Z,4.50
2017-09-24T15:29:04.855Z,4.70
2017-09-24T15:31:33.147Z,4.93
2017-09-24T15:34:01.459Z,4.03
2017-09-24T15:36:30.655Z,5.40
2017-09-24T15:38:59.038Z,4.30
2017-09-24T15:41:27.346Z,6.73
2017-09-24T15:43:56.435Z,4.77
2017-09-24T15:46:24.849Z,4.57
2017-09-24T15:48:53.894Z,5.07
2017-09-24T15:51:22.174Z,4.70
2017-09-24T15:53:50.493Z,4.50
2017-09-24T15:56:18.773Z,5.57
2017-09-24T15:58:47.188Z,4.60
2017-09-24T16:01:15.473Z,4.90
2017-09-24T16:03:43.752Z,4.80
2017-09-24T16:06:12.068Z,5.60
2017-09-24T16:08:40.346Z,4.60
2017-09-24T16:11:08.635Z,5.07
2017-09-24T16:13:36.947Z,4.37
2017-09-24T16:16:05.995Z,4.07
2017-09-24T16:18:34.415Z,4.00
2017-09-24T16:21:02.702Z,4.30
2017-09-24T16:23:30.991Z,4.47
2017-09-24T16:25:59.311Z,4.13
2017-09-24T16:28:28.432Z,4.40
2017-09-24T16:30:56.810Z,3.50
2017-09-24T16:33:25.185Z,4.00
2017-09-24T16:35:53.508Z,3.80
2017-09-24T16:38:21.893Z,3.97
2017-09-24T16:40:51.031Z,4.30
2017-09-24T16:43:19.358Z,3.87
2017-09-24T16:45:47.726Z,5.00
2017-09-24T16:48:16.452Z,4.57
2017-09-24T16:50:44.826Z,4.90
2017-09-24T16:53:13.204Z,4.80
2017-09-24T16:55:41.548Z,5.30
2017-09-24T16:58:10.677Z,6.17
2017-09-24T17:00:39.022Z,4.53
2017-09-24T17:03:08.185Z,4.97
2017-09-24T17:05:36.468Z,5.10
2017-09-24T17:08:04.755Z,5.20
2017-09-24T17:10:33.036Z,5.73
2017-09-24T17:13:01.451Z,5.30
2017-09-24T17:15:29.740Z,4.17
2017-09-24T17:17:58.080Z,4.80
2017-09-24T17:20:26.374Z,4.13
2017-09-24T17:22:54.656Z,4.70
2017-09-24T17:25:22.940Z,4.70
2017-09-24T17:27:51.234Z,5.27
2017-09-24T17:30:19.549Z,5.27
2017-09-24T17:32:48.159Z,6.40
2017-09-24T17:35:16.466Z,5.77
2017-09-24T17:37:44.786Z,5.40
2017-09-24T17:40:13.077Z,5.83
2017-09-24T17:42:41.482Z,4.93
2017-09-24T17:45:11.260Z,6.03
2017-09-24T17:47:39.535Z,5.23
2017-09-24T17:50:07.835Z,4.40
2017-09-24T17:52:36.127Z,5.53
2017-09-24T17:55:04.406Z,4.50
2017-09-24T17:57:32.691Z,5.77
2017-09-24T18:00:00.979Z,5.90
2017-09-24T18:02:29.290Z,6.00
2017-09-24T18:04:57.573Z,5.93
2017-09-24T18:07:25.859Z,6.77
2017-09-24T18:09:54.284Z,6.37
2017-09-24T18:12:22.558Z,7.43
2017-09-24T18:14:50.871Z,6.93
2017-09-24T18:17:19.162Z,7.17
2017-09-24T18:19:47.463Z,8.43
2017-09-24T18:22:15.783Z,8.17
2017-09-24T18:24:44.063Z,7.47
2017-09-24T18:27:12.349Z,7.03
2017-09-24T18:29:40.651Z,7.00
2017-09-24T18:32:08.930Z,7.83
2017-09-24T18:34:37.258Z,7.37
2017-09-24T18:37:05.559Z,7.57
2017-09-24T18:39:33.859Z,8.07
2017-09-24T18:42:02.925Z,8.73
2017-09-24T18:44:31.258Z,8.60
2017-09-24T18:47:00.318Z,9.40
2017-09-24T18:49:29.426Z,11.57
2017-09-24T18:51:57.907Z,9.77
2017-09-24T18:54:26.663Z,11.10
2017-09-24T18:56:55.731Z,10.60
2017-09-24T18:59:24.025Z,11.53
2017-09-24T19:01:52.319Z,10.97
2017-09-24T19:04:21.748Z,11.70
2017-09-24T19:06:50.074Z,11.27
2017-09-24T19:09:18.572Z,12.27
2017-09-24T19:11:46.866Z,13.20
2017-09-24T19:14:15.176Z,11.77
2017-09-24T19:16:43.467Z,13.23
2017-09-24T19:19:11.769Z,12.13
2017-09-24T19:21:40.121Z,13.83
2017-09-24T19:24:08.433Z,12.93
2017-09-24T19:26:36.727Z,13.33
2017-09-24T19:29:05.023Z,14.47
2017-09-24T19:31:33.331Z,13.77
2017-09-24T19:34:01.938Z,14.70
2017-09-24T19:36:30.252Z,15.60
2017-09-24T19:38:59.311Z,14.30
2017-09-24T19:41:27.613Z,14.70
2017-09-24T19:43:55.909Z,12.20
2017-09-24T19:46:24.330Z,16.17
2017-09-24T19:48:52.638Z,15.13
2017-09-24T19:51:20.926Z,15.30
2017-09-24T19:53:49.226Z,13.73
2017-09-24T19:56:17.519Z,13.47
2017-09-24T19:58:46.720Z,14.20
2017-09-24T20:01:15.017Z,14.37
2017-09-24T20:03:43.315Z,13.90
2017-09-24T20:06:11.626Z,15.03
2017-09-24T20:08:39.923Z,14.33
2017-09-24T20:11:08.215Z,13.97
2017-09-24T20:13:36.525Z,14.40
2017-09-24T20:16:05.591Z,14.40
2017-09-24T20:18:33.887Z,14.27
2017-09-24T20:21:02.292Z,14.33
2017-09-24T20:23:31.363Z,16.57
2017-09-24T20:26:00.651Z,17.07
2017-09-24T20:28:28.948Z,15.60
2017-09-24T20:30:57.245Z,17.23
2017-09-24T20:33:25.539Z,15.80
2017-09-24T20:35:53.836Z,16.23
2017-09-24T20:38:22.136Z,14.60
2017-09-24T20:40:50.442Z,14.80
2017-09-24T20:43:18.733Z,15.17
2017-09-24T20:45:47.344Z,16.40
2017-09-24T20:48:16.427Z,15.37
2017-09-24T20:50:44.732Z,15.23
2017-09-24T20:53:14.098Z,16.53
2017-09-24T20:55:42.414Z,16.83
2017-09-24T20:58:10.867Z,16.10
2017-09-24T21:00:39.162Z,17.03
2017-09-24T21:03:07.473Z,17.33
2017-09-24T21:05:35.787Z,16.93
2017-09-24T21:08:04.088Z,16.50
2017-09-24T21:10:33.187Z,15.80
2017-09-24T21:13:01.491Z,13.97
2017-09-24T21:15:30.580Z,17.90
2017-09-24T21:17:58.888Z,15.87
2017-09-24T21:20:28.368Z,15.67
2017-09-24T21:22:56.668Z,15.60
2017-09-24T21:25:24.965Z,14.50
2017-09-24T21:27:53.287Z,15.47
2017-09-24T21:30:21.578Z,15.27
2017-09-24T21:32:49.958Z,15.00
2017-09-24T21:35:18.261Z,14.70
2017-09-24T21:37:46.547Z,13.10
2017-09-24T21:40:14.874Z,14.57
2017-09-24T21:42:43.190Z,14.13
2017-09-24T21:45:11.485Z,14.47
2017-09-24T21:47:40.554Z,13.37
2017-09-24T21:50:08.975Z,12.13
2017-09-24T21:52:37.273Z,12.77
2017-09-24T21:55:06.336Z,12.40
2017-09-24T21:57:34.636Z,12.33
2017-09-24T22:00:03.442Z,11.93
2017-09-24T22:02:31.730Z,14.13
2017-09-24T22:05:00.032Z,13.70
2017-09-24T22:07:28.328Z,14.17
2017-09-24T22:09:56.620Z,15.03
2017-09-24T22:12:24.948Z,14.87
2017-09-24T22:14:53.243Z,13.97
2017-09-24T22:17:21.571Z,12.93
2017-09-24T22:19:49.858Z,14.77
2017-09-24T22:22:18.146Z,14.80
2017-09-24T22:24:46.471Z,16.00
2017-09-24T22:27:15.535Z,13.77
2017-09-24T22:29:43.960Z,13.40
2017-09-24T22:32:13.019Z,14.33
2017-09-24T22:34:41.307Z,13.40
2017-09-24T22:37:09.599Z,14.50
2017-09-24T22:39:38.656Z,13.63
2017-09-24T22:42:07.723Z,16.57
2017-09-24T22:44:36.023Z,12.70
2017-09-24T22:47:04.340Z,14.00
2017-09-24T22:49:33.437Z,14.60
2017-09-24T22:52:01.750Z,12.47
2017-09-24T22:54:30.044Z,14.30
2017-09-24T22:56:58.363Z,13.93
2017-09-24T22:59:26.665Z,13.30
2017-09-24T23:01:54.960Z,13.60
2017-09-24T23:04:23.255Z,15.93
2017-09-24T23:06:51.546Z,14.30
2017-09-24T23:09:19.839Z,13.80
2017-09-24T23:11:48.270Z,16.37
2017-09-24T23:14:16.556Z,14.47
2017-09-24T23:16:44.861Z,15.60
2017-09-24T23:19:13.150Z,17.80
2017-09-24T23:21:41.476Z,16.30
2017-09-24T23:24:09.801Z,16.00
2017-09-24T23:26:38.859Z,15.60
2017-09-24T23:29:07.146Z,15.33
2017-09-24T23:31:35.471Z,15.80
2017-09-24T23:34:03.801Z,14.93
2017-09-24T23:36:32.108Z,14.20
2017-09-24T23:39:00.402Z,14.70
2017-09-24T23:41:28.692Z,13.90
2017-09-24T23:43:57.103Z,14.27
2017-09-24T23:46:25.593Z,13.77
2017-09-24T23:48:53.903Z,12.93
2017-09-24T23:51:22.958Z,12.70
2017-09-24T23:53:51.254Z,14.50
2017-09-24T23:56:19.548Z,13.30
2017-09-24T23:58:47.833Z,12.90
